Time;durP1;ratioP1;P1;durP2;ratioP2;P2;SDS_P1;SDS_P2;PMS_P1;PMS_P2;Temp;Humidity;BMP_temperature;BMP_pressure;BME280_temperature;BME280_humidity;BME280_pressure;Samples;Min_cycle;Max_cycle;Signal;HPM_P1;HPM_P2
2022/08/12 00:44:53;;;;;;;3.50;2.08;;;20.70;51.90;;;;;;5015431;28;20060;-63
2022/08/12 00:47:20;;;;;;;5.07;2.40;;;20.70;51.50;;;;;;5010235;28;20057;-64
2022/08/12 00:49:48;;;;;;;8.15;2.92;;;20.70;51.70;;;;;;4993923;28;20045;-64
2022/08/12 00:52:14;;;;;;;4.13;2.30;;;20.70;51.40;;;;;;5015861;28;20127;-65
2022/08/12 00:54:45;;;;;;;5.57;2.47;;;20.70;51.40;;;;;;5009707;28;20058;-63
2022/08/12 00:57:16;;;;;;;5.60;2.22;;;20.70;51.70;;;;;;5015607;28;20193;-64
2022/08/12 00:59:49;;;;;;;3.65;2.00;;;20.60;51.80;;;;;;5038771;28;20049;-63
2022/08/12 01:02:26;;;;;;;4.32;2.20;;;20.60;52.10;;;;;;5042142;28;20059;-63
2022/08/12 01:13:13;;;;;;;4.45;2.33;;;20.40;52.40;;;;;;5015786;28;20053;-64
2022/08/12 01:15:39;;;;;;;5.47;2.33;;;20.50;52.60;;;;;;5023027;28;20041;-65
2022/08/12 01:18:05;;;;;;;6.40;2.60;;;20.30;52.90;;;;;;5012088;28;20052;-64
2022/08/12 01:20:52;;;;;;;5.20;2.40;;;20.30;53.00;;;;;;4996161;28;20427;-64
2022/08/12 01:23:57;;;;;;;6.75;2.50;;;20.30;52.90;;;;;;5022132;28;20057;-63
2022/08/12 01:26:23;;;;;;;5.63;2.30;;;20.30;52.90;;;;;;4998012;28;20480;-64
2022/08/12 01:28:54;;;;;;;5.85;2.28;;;20.30;53.00;;;;;;5013949;28;20065;-63
2022/08/12 01:31:20;;;;;;;3.47;1.95;;;20.20;52.90;;;;;;5019064;28;20057;-64
2022/08/12 01:34:11;;;;;;;7.78;2.10;;;20.20;53.10;;;;;;4999766;28;20128;-64
2022/08/12 01:36:42;;;;;;;5.55;2.33;;;20.20;53.70;;;;;;5015971;28;20125;-65
2022/08/12 01:39:08;;;;;;;5.00;2.45;;;20.20;53.40;;;;;;5015626;28;20124;-64
2022/08/12 01:41:53;;;;;;;2.97;2.30;;;20.10;53.90;;;;;;5027814;28;20124;-64
2022/08/12 01:44:20;;;;;;;4.45;2.80;;;20.00;54.10;;;;;;4995372;28;20056;-64
2022/08/12 01:47:17;;;;;;;6.63;2.78;;;20.00;54.20;;;;;;5039172;28;20152;-63
2022/08/12 01:50:16;;;;;;;5.63;2.47;;;20.00;54.30;;;;;;5018793;28;20050;-63
2022/08/12 01:53:05;;;;;;;5.13;2.60;;;20.00;53.60;;;;;;5009414;28;20464;-63
2022/08/12 01:55:33;;;;;;;5.55;2.95;;;19.90;53.90;;;;;;5011070;28;20060;-63
2022/08/12 02:01:23;;;;;;;5.18;2.67;;;19.80;54.50;;;;;;4987269;28;20499;-63
2022/08/12 02:12:43;;;;;;;6.70;3.10;;;19.60;55.20;;;;;;5039296;28;20068;-63
2022/08/12 02:15:40;;;;;;;5.97;2.58;;;19.60;54.80;;;;;;5018748;28;20077;-63
2022/08/12 02:18:15;;;;;;;4.88;2.72;;;19.60;54.40;;;;;;5013360;28;20166;-64
2022/08/12 02:21:03;;;;;;;4.10;2.50;;;19.60;54.20;;;;;;5020887;28;20135;-63
2022/08/12 02:23:28;;;;;;;5.22;2.75;;;19.60;54.30;;;;;;4999102;28;20049;-63
2022/08/12 02:25:58;;;;;;;5.40;2.90;;;19.50;54.90;;;;;;4999434;28;20050;-63
2022/08/12 02:28:23;;;;;;;6.72;2.80;;;19.50;54.90;;;;;;5005476;28;20053;-63
2022/08/12 02:30:50;;;;;;;6.95;2.75;;;19.60;54.40;;;;;;5041627;28;20580;-63
2022/08/12 02:33:16;;;;;;;8.23;2.95;;;19.60;54.40;;;;;;5012934;28;20136;-63
2022/08/12 02:35:42;;;;;;;4.55;2.50;;;19.50;54.90;;;;;;5014317;28;20104;-63
2022/08/12 02:38:09;;;;;;;6.20;2.80;;;19.50;54.90;;;;;;5010408;28;20042;-65
2022/08/12 02:40:36;;;;;;;6.00;2.78;;;19.50;55.40;;;;;;4993299;28;20052;-64
2022/08/12 02:43:10;;;;;;;5.33;2.40;;;19.40;55.40;;;;;;4991964;28;20046;-65
2022/08/12 02:46:04;;;;;;;4.80;2.70;;;19.30;56.40;;;;;;5009451;28;20475;-64
2022/08/12 02:48:34;;;;;;;6.00;2.67;;;19.20;55.80;;;;;;4999299;28;20050;-65
2022/08/12 02:51:04;;;;;;;4.90;2.75;;;19.20;55.70;;;;;;5011870;28;20045;-64
2022/08/12 02:53:32;;;;;;;5.72;2.53;;;19.30;55.50;;;;;;5008731;28;20050;-64
2022/08/12 02:56:01;;;;;;;7.47;2.97;;;19.30;55.70;;;;;;5015662;28;20112;-63
2022/08/12 02:58:27;;;;;;;5.18;2.35;;;19.30;55.80;;;;;;5030322;28;20045;-64
2022/08/12 03:00:53;;;;;;;5.97;2.60;;;19.20;55.90;;;;;;5042996;28;20967;-64
2022/08/12 03:03:19;;;;;;;4.93;2.60;;;19.20;55.90;;;;;;5002451;28;20132;-63
2022/08/12 03:05:59;;;;;;;6.00;3.20;;;19.10;56.30;;;;;;5008715;28;20063;-63
2022/08/12 03:08:29;;;;;;;5.70;2.97;;;19.00;56.60;;;;;;5011491;28;20099;-63
2022/08/12 03:10:58;;;;;;;5.15;2.70;;;18.90;57.00;;;;;;5010422;28;20112;-63
2022/08/12 03:13:25;;;;;;;9.52;2.95;;;18.90;57.50;;;;;;4997847;28;20048;-63
2022/08/12 03:15:54;;;;;;;5.47;2.70;;;18.90;56.90;;;;;;5014391;28;20050;-64
2022/08/12 03:18:39;;;;;;;7.25;2.70;;;18.80;57.50;;;;;;4994048;28;20053;-63
2022/08/12 03:21:04;;;;;;;7.03;2.92;;;18.80;57.60;;;;;;5014125;28;20052;-62
2022/08/12 03:23:30;;;;;;;5.45;2.90;;;18.70;58.20;;;;;;5000156;28;20054;-63
2022/08/12 03:25:57;;;;;;;8.43;3.05;;;18.70;57.80;;;;;;5042713;28;20052;-63
2022/08/12 03:31:08;;;;;;;8.90;3.20;;;18.70;57.80;;;;;;5017489;28;20472;-62
2022/08/12 03:33:36;;;;;;;6.45;2.72;;;18.80;57.70;;;;;;4993535;28;20046;-62
2022/08/12 03:36:06;;;;;;;6.30;2.70;;;18.80;58.00;;;;;;5010194;28;20818;-63
2022/08/12 03:38:35;;;;;;;8.50;3.08;;;18.70;58.10;;;;;;4993462;28;20041;-63
2022/08/12 04:00:51;;;;;;;6.65;2.97;;;18.60;58.20;;;;;;5010746;28;20073;-63
2022/08/12 04:06:02;;;;;;;6.50;3.17;;;18.40;58.50;;;;;;5011065;28;20037;-64
2022/08/12 04:08:27;;;;;;;7.88;3.20;;;18.40;58.80;;;;;;5011619;28;20132;-62
2022/08/12 04:13:39;;;;;;;6.38;2.78;;;18.50;58.90;;;;;;5017021;28;20066;-62
2022/08/12 04:16:06;;;;;;;4.80;3.15;;;18.50;58.20;;;;;;5015470;28;20085;-64
2022/08/12 04:18:32;;;;;;;8.52;3.47;;;18.50;58.20;;;;;;5006163;28;20041;-64
2022/08/12 04:21:00;;;;;;;8.48;3.47;;;18.50;58.00;;;;;;5003566;28;20054;-63
2022/08/12 04:23:26;;;;;;;6.20;2.78;;;18.50;58.20;;;;;;5012176;28;20046;-62
2022/08/12 04:25:52;;;;;;;5.85;3.45;;;18.50;58.20;;;;;;5011316;28;20145;-63
2022/08/12 04:28:26;;;;;;;5.43;3.10;;;18.50;58.40;;;;;;4989357;28;20073;-63
2022/08/12 04:30:52;;;;;;;6.13;3.40;;;18.40;59.20;;;;;;5016968;28;20052;-62
2022/08/12 04:33:18;;;;;;;8.43;3.47;;;18.40;59.60;;;;;;5021545;28;20046;-63
2022/08/12 04:35:45;;;;;;;7.70;3.53;;;18.40;59.70;;;;;;5016603;28;20460;-63
2022/08/12 04:38:11;;;;;;;6.43;2.93;;;18.30;59.50;;;;;;4996472;28;20047;-63
2022/08/12 04:40:37;;;;;;;8.07;3.00;;;18.30;59.60;;;;;;5061657;28;20275;-63
2022/08/12 04:43:03;;;;;;;9.40;3.20;;;18.30;59.70;;;;;;5013099;28;20066;-63
2022/08/12 04:45:30;;;;;;;6.22;2.80;;;18.30;59.70;;;;;;5015854;28;20514;-63
2022/08/12 04:47:55;;;;;;;7.20;2.70;;;18.30;59.80;;;;;;5016519;28;20061;-63
2022/08/12 04:50:23;;;;;;;6.55;3.13;;;18.30;59.50;;;;;;5017095;28;20384;-64
2022/08/12 04:52:49;;;;;;;5.47;2.80;;;18.40;59.90;;;;;;5010126;28;20077;-63
2022/08/12 04:55:15;;;;;;;6.30;3.10;;;18.40;59.40;;;;;;5038308;28;20076;-64
2022/08/12 04:57:41;;;;;;;10.63;3.08;;;18.40;59.30;;;;;;5010348;28;20060;-63
2022/08/12 05:00:11;;;;;;;8.93;3.20;;;18.30;59.60;;;;;;5016227;28;20046;-63
2022/08/12 05:02:37;;;;;;;5.43;3.25;;;18.30;59.70;;;;;;5012841;28;20051;-63
2022/08/12 05:05:03;;;;;;;6.63;3.22;;;18.30;59.60;;;;;;4997384;28;20439;-65
2022/08/12 05:07:29;;;;;;;7.15;3.38;;;18.40;59.70;;;;;;4993693;28;20937;-64
2022/08/12 05:09:55;;;;;;;6.63;3.30;;;18.40;59.80;;;;;;5016676;28;20092;-63
2022/08/12 05:12:22;;;;;;;5.72;3.10;;;18.40;59.50;;;;;;5044047;28;20042;-69
2022/08/12 05:14:49;;;;;;;9.25;3.38;;;18.40;59.70;;;;;;5010981;28;20080;-68
2022/08/12 05:17:15;;;;;;;8.32;3.05;;;18.30;60.30;;;;;;5018120;28;20073;-68
2022/08/12 05:19:41;;;;;;;6.82;3.00;;;18.20;60.30;;;;;;5014175;28;20076;-68
2022/08/12 05:22:07;;;;;;;6.47;3.08;;;18.30;60.10;;;;;;5020078;28;20037;-63
2022/08/12 05:24:33;;;;;;;5.72;2.72;;;18.30;60.50;;;;;;5042937;28;20072;-69
2022/08/12 05:26:59;;;;;;;6.00;2.60;;;18.40;60.10;;;;;;5010143;28;20045;-69
2022/08/12 05:29:28;;;;;;;5.43;3.05;;;18.40;58.70;;;;;;5009420;28;20244;-68
2022/08/12 05:31:55;;;;;;;7.65;3.00;;;18.40;58.50;;;;;;4995433;28;20092;-69
2022/08/12 05:34:20;;;;;;;7.50;2.58;;;18.50;58.10;;;;;;5000498;28;20059;-70
2022/08/12 05:36:46;;;;;;;8.48;3.10;;;18.50;58.00;;;;;;5014622;28;20045;-69
2022/08/12 05:39:12;;;;;;;9.32;3.47;;;18.50;57.70;;;;;;5029093;28;20045;-70
2022/08/12 05:41:38;;;;;;;4.75;2.70;;;18.60;57.90;;;;;;5009800;28;20045;-69
2022/08/12 05:44:06;;;;;;;8.13;2.63;;;18.50;57.60;;;;;;5012634;28;20044;-65
2022/08/12 05:46:32;;;;;;;6.00;2.80;;;18.60;57.60;;;;;;4998225;28;20482;-62
2022/08/12 05:48:59;;;;;;;9.68;2.90;;;18.60;57.50;;;;;;4998078;28;20052;-71
2022/08/12 05:51:26;;;;;;;5.00;3.00;;;18.70;57.40;;;;;;5044192;28;20041;-64
2022/08/12 05:53:53;;;;;;;6.45;2.90;;;18.70;57.80;;;;;;5010068;28;20083;-69
2022/08/12 05:56:21;;;;;;;5.50;2.75;;;18.70;57.50;;;;;;5011312;28;20048;-70
2022/08/12 05:58:47;;;;;;;5.03;2.50;;;18.70;57.30;;;;;;5010125;28;20041;-69
2022/08/12 06:01:13;;;;;;;6.20;2.72;;;18.80;57.00;;;;;;5013158;28;20045;-71
2022/08/12 06:03:40;;;;;;;5.00;2.90;;;18.80;56.80;;;;;;5018015;28;20111;-69
2022/08/12 06:06:07;;;;;;;5.43;2.60;;;18.80;56.60;;;;;;5009456;28;20144;-69
2022/08/12 06:08:35;;;;;;;4.75;2.50;;;18.90;56.80;;;;;;5012781;28;20049;-69
2022/08/12 06:11:03;;;;;;;;;;;18.90;56.90;;;;;;5010716;28;20136;-69
2022/08/12 06:13:29;;;;;;;6.50;3.00;;;19.00;56.90;;;;;;5010892;28;19913;-70
2022/08/12 06:15:55;;;;;;;5.80;3.38;;;19.10;56.70;;;;;;5020945;28;20280;-69
2022/08/12 06:18:21;;;;;;;4.05;2.65;;;19.20;56.70;;;;;;5016287;28;20137;-69
2022/08/12 06:20:52;;;;;;;3.85;2.45;;;19.20;56.80;;;;;;5005432;28;20141;-69
2022/08/12 06:23:19;;;;;;;4.45;2.70;;;19.20;56.70;;;;;;5007151;28;20621;-70
2022/08/12 06:25:45;;;;;;;8.25;3.35;;;19.30;56.80;;;;;;5019513;28;20053;-70
2022/08/12 06:28:20;;;;;;;7.57;2.63;;;19.40;56.90;;;;;;5014613;28;20128;-71
2022/08/12 06:30:45;;;;;;;7.93;2.88;;;19.50;57.10;;;;;;5018009;28;20064;-71
2022/08/12 06:33:12;;;;;;;8.25;2.47;;;19.50;56.80;;;;;;4999612;28;20049;-70
2022/08/12 06:35:40;;;;;;;6.05;2.83;;;19.60;56.90;;;;;;4992578;28;20947;-70
2022/08/12 06:38:14;;;;;;;6.30;2.95;;;19.60;57.00;;;;;;5026219;28;20136;-70
2022/08/12 06:43:26;;;;;;;6.80;2.83;;;19.80;57.00;;;;;;5006587;28;20046;-72
2022/08/12 06:45:52;;;;;;;4.75;2.60;;;19.80;56.80;;;;;;5007216;28;20420;-71
2022/08/12 06:48:18;;;;;;;5.93;2.63;;;19.90;56.90;;;;;;5021793;28;20128;-70
2022/08/12 06:50:44;;;;;;;6.95;2.70;;;19.90;56.90;;;;;;5012036;28;20411;-72
2022/08/12 06:53:10;;;;;;;7.15;2.72;;;20.00;57.00;;;;;;5022002;28;20080;-70
2022/08/12 06:55:38;;;;;;;5.88;2.40;;;20.10;57.20;;;;;;5030026;28;20490;-72
2022/08/12 06:58:04;;;;;;;6.95;2.33;;;20.20;57.50;;;;;;4998473;28;20538;-71
2022/08/12 07:00:32;;;;;;;6.38;2.92;;;20.30;57.30;;;;;;5004489;28;20046;-70
2022/08/12 07:02:58;;;;;;;8.88;2.53;;;20.30;57.70;;;;;;5042544;28;20041;-71
2022/08/12 07:05:24;;;;;;;5.28;2.67;;;20.40;57.60;;;;;;4990762;28;20060;-69
2022/08/12 07:08:05;;;;;;;5.75;2.75;;;20.50;57.30;;;;;;5009932;28;20050;-72
2022/08/12 07:10:34;;;;;;;5.22;2.30;;;20.50;57.60;;;;;;5014249;28;20061;-70
2022/08/12 07:13:01;;;;;;;5.57;2.53;;;20.60;57.30;;;;;;5014027;28;20111;-70
2022/08/12 07:15:28;;;;;;;6.13;2.60;;;20.70;57.40;;;;;;5023580;28;20053;-64
2022/08/12 07:18:04;;;;;;;6.30;2.83;;;20.70;57.40;;;;;;5010174;28;20042;-63
2022/08/12 07:20:31;;;;;;;5.75;2.70;;;20.80;57.40;;;;;;5026920;28;20411;-70
2022/08/12 07:22:57;;;;;;;4.10;2.58;;;20.90;58.20;;;;;;5012152;28;20124;-71
2022/08/12 07:25:33;;;;;;;5.22;2.42;;;21.00;57.30;;;;;;4992198;28;20041;-68
2022/08/12 07:28:03;;;;;;;5.13;2.50;;;21.10;57.30;;;;;;5011062;28;20057;-71
2022/08/12 07:30:31;;;;;;;4.57;2.38;;;21.20;57.40;;;;;;5036250;28;20128;-72
2022/08/12 07:33:00;;;;;;;6.57;2.50;;;21.30;57.40;;;;;;4999224;28;20164;-71
2022/08/12 07:35:29;;;;;;;6.13;2.72;;;21.40;57.30;;;;;;5006189;28;20811;-71
2022/08/12 07:37:56;;;;;;;6.20;2.47;;;21.50;57.10;;;;;;5012669;28;20053;-70
2022/08/12 07:40:23;;;;;;;5.25;2.45;;;21.50;57.10;;;;;;5022393;28;20053;-72
2022/08/12 07:42:49;;;;;;;5.05;2.45;;;21.60;57.10;;;;;;5028223;28;20152;-73
2022/08/12 07:45:15;;;;;;;5.80;2.55;;;21.70;56.10;;;;;;5020900;28;20041;-71
2022/08/12 07:47:44;;;;;;;5.85;2.45;;;21.80;55.80;;;;;;5020483;28;20049;-76
2022/08/12 07:50:11;;;;;;;5.18;2.72;;;21.90;55.70;;;;;;5010455;28;20156;-65
2022/08/12 07:52:37;;;;;;;4.57;2.22;;;22.00;55.30;;;;;;5014607;28;20128;-72
2022/08/12 07:55:04;;;;;;;4.05;2.10;;;22.10;54.80;;;;;;5040996;28;20045;-72
2022/08/12 07:57:32;;;;;;;7.63;2.28;;;22.10;54.20;;;;;;5024290;28;20176;-71
2022/08/12 08:00:05;;;;;;;5.45;2.50;;;22.20;53.90;;;;;;5017976;28;20046;-69
2022/08/12 08:02:32;;;;;;;9.60;2.35;;;22.30;53.70;;;;;;5026054;28;20046;-69
2022/08/12 08:04:59;;;;;;;7.63;2.28;;;22.40;53.10;;;;;;5011882;28;20051;-69
2022/08/12 08:07:26;;;;;;;8.80;2.30;;;22.50;52.60;;;;;;5026707;28;20065;-70
2022/08/12 08:09:56;;;;;;;4.93;2.20;;;22.50;52.10;;;;;;5023892;28;20056;-69
2022/08/12 08:15:09;;;;;;;6.53;2.28;;;22.80;50.60;;;;;;5017620;28;20379;-70
2022/08/12 08:17:36;;;;;;;6.95;1.92;;;22.90;50.20;;;;;;5020754;28;20056;-70
2022/08/12 08:20:03;;;;;;;4.70;2.28;;;23.00;50.90;;;;;;5006544;28;20049;-69
2022/08/12 08:22:28;;;;;;;5.03;2.10;;;23.10;50.30;;;;;;5022202;28;20494;-69
2022/08/12 08:24:58;;;;;;;4.55;2.33;;;23.20;50.40;;;;;;5022818;28;20046;-69
2022/08/12 08:27:24;;;;;;;6.47;2.35;;;23.30;50.10;;;;;;5023116;28;20641;-69
2022/08/12 08:29:50;;;;;;;5.93;2.10;;;23.40;49.80;;;;;;5023071;28;20120;-68
2022/08/12 08:32:16;;;;;;;3.80;2.20;;;23.50;49.40;;;;;;5006900;28;20045;-69
2022/08/12 08:34:44;;;;;;;3.65;1.70;;;23.60;47.60;;;;;;5019137;28;20060;-69
2022/08/12 08:37:14;;;;;;;3.90;1.75;;;23.70;46.70;;;;;;5024540;28;20084;-70
2022/08/12 08:39:40;;;;;;;6.32;1.73;;;23.80;47.30;;;;;;5016787;28;20046;-69
2022/08/12 08:44:50;;;;;;;6.15;2.17;;;24.00;45.70;;;;;;5019332;28;20382;-69
2022/08/12 08:47:16;;;;;;;8.43;2.00;;;24.10;46.60;;;;;;5026167;28;20041;-68
2022/08/12 08:49:42;;;;;;;4.57;2.20;;;24.20;46.00;;;;;;5012667;28;20045;-69
2022/08/12 08:52:09;;;;;;;4.70;2.08;;;24.30;44.70;;;;;;5016961;28;20135;-68
2022/08/12 08:54:36;;;;;;;4.90;2.03;;;24.30;44.30;;;;;;4998717;28;20057;-68
2022/08/12 08:57:03;;;;;;;6.00;2.00;;;24.50;44.00;;;;;;5017302;28;20049;-68
2022/08/12 08:59:29;;;;;;;2.90;1.80;;;24.50;44.80;;;;;;5035884;28;20046;-70
2022/08/12 09:01:54;;;;;;;7.30;1.90;;;24.60;44.40;;;;;;5002165;28;20160;-70
2022/08/12 09:04:22;;;;;;;4.32;1.70;;;24.60;43.40;;;;;;4999470;28;20057;-70
2022/08/12 09:06:48;;;;;;;6.47;1.77;;;24.70;41.90;;;;;;5019791;28;20060;-70
2022/08/12 09:09:16;;;;;;;5.97;1.90;;;24.70;43.50;;;;;;5003517;28;20045;-70
2022/08/12 09:14:27;;;;;;;4.18;1.70;;;25.00;40.90;;;;;;5013966;28;20491;-70
2022/08/12 09:16:52;;;;;;;2.25;1.70;;;25.00;42.40;;;;;;5016241;28;20060;-70
2022/08/12 09:19:18;;;;;;;8.18;1.63;;;25.10;40.30;;;;;;5019431;28;20418;-69
2022/08/12 09:21:47;;;;;;;6.53;1.67;;;25.20;42.20;;;;;;5021968;28;20073;-69
2022/08/12 09:24:17;;;;;;;9.43;1.83;;;25.30;41.00;;;;;;5023160;28;20079;-69
2022/08/12 09:26:47;;;;;;;10.73;1.95;;;25.40;39.40;;;;;;5000915;28;20046;-70
2022/08/12 09:29:19;;;;;;;4.60;1.70;;;25.40;42.10;;;;;;4998649;28;20124;-71
2022/08/12 09:31:46;;;;;;;7.97;1.92;;;25.40;41.30;;;;;;5023600;28;20136;-71
2022/08/12 09:34:12;;;;;;;4.07;1.52;;;25.40;40.50;;;;;;4983960;28;20160;-70
2022/08/12 09:36:40;;;;;;;5.83;1.90;;;25.40;42.20;;;;;;5001437;28;20144;-71
2022/08/12 09:39:06;;;;;;;5.45;1.70;;;25.40;39.90;;;;;;5002371;28;20077;-71
2022/08/12 09:41:42;;;;;;;6.75;2.15;;;25.50;40.50;;;;;;5041160;28;20046;-71
2022/08/12 09:46:53;;;;;;;9.48;1.70;;;25.60;40.10;;;;;;5019910;28;20045;-71
2022/08/12 09:49:20;;;;;;;6.43;1.90;;;25.70;40.20;;;;;;5011715;28;20486;-71
2022/08/12 09:51:47;;;;;;;5.10;1.70;;;25.70;40.50;;;;;;5007184;28;20053;-71
2022/08/12 09:54:15;;;;;;;9.73;1.90;;;25.80;39.30;;;;;;5015535;28;20111;-71
2022/08/12 09:56:41;;;;;;;3.17;1.80;;;25.80;39.90;;;;;;5004912;28;20124;-71
2022/08/12 09:59:08;;;;;;;6.40;2.20;;;25.90;39.50;;;;;;4992565;28;20052;-70
2022/08/12 10:01:38;;;;;;;7.38;1.63;;;26.00;38.20;;;;;;5009498;28;20125;-71
2022/08/12 10:04:10;;;;;;;8.50;2.15;;;26.10;38.90;;;;;;5054620;28;20486;-70
2022/08/12 10:06:40;;;;;;;13.82;1.98;;;26.30;38.30;;;;;;5007539;28;20049;-70
2022/08/12 10:09:07;;;;;;;10.32;1.80;;;26.40;38.10;;;;;;5009005;28;20073;-70
2022/08/12 10:14:17;;;;;;;4.88;1.70;;;26.50;39.10;;;;;;5011075;28;20488;-70
2022/08/12 10:16:43;;;;;;;15.43;2.45;;;26.50;39.60;;;;;;5002407;28;20060;-70
2022/08/12 10:19:08;;;;;;;6.70;1.67;;;26.60;39.10;;;;;;5020727;28;20048;-70
2022/08/12 10:21:39;;;;;;;6.68;2.00;;;26.70;38.90;;;;;;5008540;28;20411;-70
2022/08/12 10:24:18;;;;;;;5.85;1.90;;;26.80;38.90;;;;;;5010657;28;20577;-70
2022/08/12 10:29:46;;;;;;;7.55;1.80;;;27.00;38.30;;;;;;5014562;28;19921;-70
2022/08/12 10:32:19;;;;;;;4.85;1.60;;;27.00;37.40;;;;;;5002007;28;20041;-69
2022/08/12 10:34:45;;;;;;;4.80;1.50;;;27.10;38.80;;;;;;5008727;28;20046;-71
2022/08/12 10:37:11;;;;;;;6.65;1.63;;;27.10;38.60;;;;;;5011238;28;20045;-70
2022/08/12 10:39:38;;;;;;;8.10;1.95;;;27.20;37.40;;;;;;5012227;28;20049;-68
2022/08/12 10:44:59;;;;;;;8.82;1.63;;;27.30;37.70;;;;;;5011107;28;20061;-70
2022/08/12 10:47:33;;;;;;;5.03;1.48;;;27.40;36.20;;;;;;4982019;28;20128;-70
2022/08/12 10:49:59;;;;;;;5.95;1.42;;;27.50;36.00;;;;;;5008324;28;20050;-70
2022/08/12 10:52:30;;;;;;;4.93;1.80;;;27.50;36.30;;;;;;5015024;28;20463;-70
2022/08/12 10:54:57;;;;;;;4.68;1.70;;;27.60;36.80;;;;;;5023809;28;20486;-71
2022/08/12 10:57:25;;;;;;;4.15;2.00;;;27.70;35.80;;;;;;5018603;28;20049;-70
2022/08/12 10:59:55;;;;;;;6.63;1.85;;;27.80;35.40;;;;;;5002535;28;20429;-69
2022/08/12 11:02:25;;;;;;;3.22;1.55;;;27.90;36.80;;;;;;4999073;28;20053;-71
2022/08/12 11:04:51;;;;;;;6.03;1.40;;;28.00;36.50;;;;;;5006126;28;20046;-71
2022/08/12 11:07:16;;;;;;;9.10;1.42;;;28.00;35.90;;;;;;5012000;28;20434;-70
2022/08/12 11:09:43;;;;;;;6.95;1.60;;;28.10;36.30;;;;;;5019245;28;20050;-72
2022/08/12 11:12:09;;;;;;;3.28;1.52;;;28.10;34.50;;;;;;5012312;28;20061;-71
2022/08/12 11:14:37;;;;;;;5.88;1.95;;;28.10;34.50;;;;;;5019764;28;20123;-70
2022/08/12 11:17:05;;;;;;;3.38;1.77;;;28.20;36.20;;;;;;4998507;28;20042;-70
2022/08/12 11:19:32;;;;;;;3.95;1.60;;;28.20;36.70;;;;;;5023023;28;20046;-70
2022/08/12 11:21:58;;;;;;;5.22;1.63;;;28.30;35.90;;;;;;5010226;28;20060;-70
2022/08/12 11:24:24;;;;;;;8.40;1.40;;;28.30;36.60;;;;;;5030587;28;20053;-71
2022/08/12 11:26:51;;;;;;;7.97;1.70;;;28.40;36.10;;;;;;5026468;28;20049;-69
2022/08/12 11:29:23;;;;;;;7.40;1.45;;;28.30;35.70;;;;;;5013800;28;20475;-70
2022/08/12 11:31:49;;;;;;;7.63;1.52;;;28.30;34.30;;;;;;5022097;28;20076;-69
2022/08/12 11:34:15;;;;;;;6.18;1.58;;;28.30;33.10;;;;;;5026663;28;20459;-69
2022/08/12 11:36:51;;;;;;;5.95;1.60;;;28.40;33.30;;;;;;5020406;28;20069;-69
2022/08/12 11:39:17;;;;;;;5.30;1.55;;;28.50;33.60;;;;;;4989258;28;20098;-69
2022/08/12 11:41:43;;;;;;;4.43;1.35;;;28.60;32.80;;;;;;5018708;28;20048;-67
2022/08/12 11:44:09;;;;;;;5.55;1.50;;;28.60;31.80;;;;;;5010477;28;20037;-68
2022/08/12 11:46:36;;;;;;;3.72;1.70;;;28.50;32.10;;;;;;5022598;28;20049;-69
2022/08/12 11:49:02;;;;;;;4.68;2.13;;;28.70;33.30;;;;;;5026708;28;20128;-69
2022/08/12 11:51:28;;;;;;;4.13;1.50;;;28.70;32.40;;;;;;5026389;28;20084;-70
2022/08/12 11:53:54;;;;;;;4.20;1.50;;;28.80;32.20;;;;;;4989412;28;20139;-71
2022/08/12 11:56:19;;;;;;;3.47;1.30;;;28.90;32.20;;;;;;5021176;28;20447;-70
2022/08/12 11:58:45;;;;;;;4.25;1.40;;;29.00;32.60;;;;;;5031315;28;20102;-71
2022/08/12 12:01:11;;;;;;;6.65;1.63;;;29.20;32.80;;;;;;5013878;28;20055;-70
2022/08/12 12:03:37;;;;;;;8.20;1.60;;;29.40;32.20;;;;;;5008267;28;20452;-70
2022/08/12 12:06:02;;;;;;;6.03;1.85;;;29.70;32.10;;;;;;5042763;28;20041;-69
2022/08/12 12:08:30;;;;;;;7.50;1.80;;;29.70;31.90;;;;;;4996811;28;20132;-70
2022/08/12 12:10:55;;;;;;;7.88;1.40;;;29.80;32.20;;;;;;5010954;28;20744;-70
2022/08/12 12:13:21;;;;;;;5.18;1.83;;;29.90;31.90;;;;;;5001126;28;20049;-71
2022/08/12 12:15:47;;;;;;;4.35;1.75;;;30.00;32.20;;;;;;5017287;28;20053;-70
2022/08/12 12:18:28;;;;;;;8.60;1.77;;;29.90;31.70;;;;;;5019310;28;20052;-71
2022/08/12 12:20:56;;;;;;;4.57;1.63;;;30.10;31.80;;;;;;5010953;28;20458;-70
2022/08/12 12:23:22;;;;;;;4.47;1.65;;;30.00;30.90;;;;;;5018846;28;20061;-69
2022/08/12 12:25:48;;;;;;;4.07;1.75;;;30.10;31.80;;;;;;5016888;28;20383;-71
2022/08/12 12:28:14;;;;;;;7.00;1.60;;;30.30;31.00;;;;;;5012581;28;20064;-70
2022/08/12 12:30:40;;;;;;;7.15;1.50;;;30.40;30.50;;;;;;5009990;28;20200;-70
2022/08/12 12:33:06;;;;;;;4.63;1.42;;;30.50;30.90;;;;;;5043916;28;20072;-70
2022/08/12 12:35:32;;;;;;;5.13;1.50;;;30.50;30.00;;;;;;4994870;28;20049;-72
2022/08/12 12:37:59;;;;;;;5.70;1.50;;;30.40;30.40;;;;;;5012898;28;20121;-70
2022/08/12 12:40:25;;;;;;;8.40;1.50;;;30.30;30.40;;;;;;5011828;28;20422;-71
2022/08/12 12:42:51;;;;;;;8.30;1.80;;;30.40;30.90;;;;;;5009509;28;20398;-71
2022/08/12 12:45:18;;;;;;;6.60;1.90;;;30.20;30.10;;;;;;5015667;28;20373;-70
2022/08/12 12:48:02;;;;;;;6.40;1.42;;;30.30;31.40;;;;;;4999629;28;20084;-70
2022/08/12 12:50:29;;;;;;;5.45;1.60;;;30.50;31.00;;;;;;5017245;28;20046;-70
2022/08/12 12:52:55;;;;;;;6.30;1.80;;;30.70;30.90;;;;;;5009985;28;20584;-70
2022/08/12 12:55:21;;;;;;;6.13;1.80;;;30.70;30.00;;;;;;5013404;28;20066;-69
2022/08/12 12:57:47;;;;;;;4.18;1.45;;;30.90;30.30;;;;;;4993261;28;20139;-70
2022/08/12 13:00:14;;;;;;;5.75;1.60;;;31.00;30.90;;;;;;5015125;28;20069;-70
2022/08/12 13:02:49;;;;;;;7.25;1.52;;;31.30;30.10;;;;;;5017202;28;20058;-70
2022/08/12 13:05:16;;;;;;;5.82;1.58;;;31.10;30.00;;;;;;5011714;28;20046;-70
2022/08/12 13:07:42;;;;;;;3.70;1.60;;;30.90;29.90;;;;;;4993094;28;20053;-70
2022/08/12 13:10:08;;;;;;;2.92;1.20;;;30.80;30.20;;;;;;5009098;28;20041;-70
2022/08/12 13:12:34;;;;;;;2.85;1.50;;;30.90;30.00;;;;;;5042296;28;20045;-70
2022/08/12 13:15:03;;;;;;;3.47;1.30;;;30.90;30.30;;;;;;5010412;28;20057;-71
2022/08/12 13:17:32;;;;;;;6.20;1.25;;;31.20;29.90;;;;;;4998142;28;20095;-70
2022/08/12 13:20:03;;;;;;;1.70;1.08;;;31.30;29.80;;;;;;5015344;28;20136;-70
2022/08/12 13:22:30;;;;;;;3.00;1.20;;;31.50;29.30;;;;;;4999634;28;20038;-70
2022/08/12 13:24:58;;;;;;;3.20;1.13;;;31.30;29.10;;;;;;5011015;28;20049;-70
2022/08/12 13:27:34;;;;;;;4.38;1.30;;;31.40;29.60;;;;;;5023153;28;20615;-70
2022/08/12 13:30:02;;;;;;;4.28;1.63;;;31.50;29.00;;;;;;5016057;28;20065;-71
2022/08/12 13:32:28;;;;;;;;;;;31.60;29.10;;;;;;5020889;28;20042;-70
2022/08/12 13:34:56;;;;;;;5.25;1.30;;;31.70;29.00;;;;;;5042770;28;19940;-69
2022/08/12 13:37:25;;;;;;;4.30;1.02;;;31.90;29.70;;;;;;5010271;28;20069;-71
2022/08/12 13:39:51;;;;;;;1.80;1.05;;;32.00;29.40;;;;;;5060121;28;20045;-69
2022/08/12 13:42:21;;;;;;;3.15;1.10;;;32.10;28.80;;;;;;5016748;28;20073;-70
2022/08/12 13:44:50;;;;;;;5.18;1.00;;;32.20;28.70;;;;;;5009505;28;20049;-70
2022/08/12 13:47:15;;;;;;;2.72;1.20;;;32.40;29.00;;;;;;4993191;28;20104;-71
2022/08/12 13:49:41;;;;;;;2.72;1.00;;;32.60;28.40;;;;;;5014844;28;20049;-71
2022/08/12 13:52:07;;;;;;;3.42;1.00;;;32.80;28.70;;;;;;5003444;28;20771;-71
2022/08/12 13:54:33;;;;;;;3.70;1.00;;;33.30;28.30;;;;;;5024653;28;20772;-71
2022/08/12 13:56:58;;;;;;;5.25;0.93;;;33.30;27.90;;;;;;5014944;28;20836;-72
2022/08/12 13:59:24;;;;;;;4.40;2.63;;;33.30;27.70;;;;;;5039577;28;20072;-70
2022/08/12 14:01:53;;;;;;;1.58;1.00;;;33.40;27.20;;;;;;5003681;28;20042;-70
2022/08/12 14:04:19;;;;;;;2.30;1.10;;;33.50;27.00;;;;;;5007111;28;20061;-70
2022/08/12 14:06:49;;;;;;;1.20;0.83;;;33.50;27.30;;;;;;4990583;28;20262;-71
2022/08/12 14:09:15;;;;;;;3.10;1.20;;;33.80;27.80;;;;;;5013033;28;20121;-69
2022/08/12 14:11:42;;;;;;;2.58;1.13;;;33.90;27.30;;;;;;5014276;28;20427;-71
2022/08/12 14:14:09;;;;;;;3.65;0.90;;;34.10;27.20;;;;;;5004104;28;20049;-70
2022/08/12 14:16:35;;;;;;;8.60;0.80;;;34.50;27.30;;;;;;4994826;28;20359;-70
2022/08/12 14:19:01;;;;;;;2.05;0.68;;;34.50;27.10;;;;;;5009344;28;20464;-70
2022/08/12 14:21:28;;;;;;;2.63;0.70;;;34.90;27.40;;;;;;5023938;28;20041;-71
2022/08/12 14:23:54;;;;;;;4.85;0.80;;;34.80;26.60;;;;;;5023171;28;20553;-71
2022/08/12 14:26:23;;;;;;;3.23;0.60;;;34.80;26.70;;;;;;4994866;28;20049;-70
2022/08/12 14:28:53;;;;;;;2.35;0.70;;;34.80;27.00;;;;;;4998873;28;20045;-69
2022/08/12 14:31:20;;;;;;;2.40;0.60;;;35.00;27.00;;;;;;5010845;28;20506;-71
2022/08/12 14:33:51;;;;;;;2.95;0.65;;;34.90;27.20;;;;;;5000502;28;20042;-70
2022/08/12 14:36:24;;;;;;;3.30;0.50;;;34.50;26.40;;;;;;5038687;28;20048;-69
2022/08/12 14:38:51;;;;;;;3.33;0.60;;;34.50;27.10;;;;;;5039787;28;20045;-70
2022/08/12 14:41:18;;;;;;;2.60;0.70;;;34.60;27.30;;;;;;5038314;28;20042;-71
2022/08/12 14:43:46;;;;;;;3.03;0.60;;;34.30;26.30;;;;;;4992931;28;20138;-70
2022/08/12 14:46:23;;;;;;;3.85;3.22;;;34.00;27.20;;;;;;5008150;28;20045;-70
2022/08/12 14:48:51;;;;;;;5.57;0.93;;;34.00;27.30;;;;;;5009023;28;20046;-70